Time;durP1;ratioP1;P1;durP2;ratioP2;P2;SDS_P1;SDS_P2;PMS_P1;PMS_P2;Temp;Humidity;BMP_temperature;BMP_pressure;BME280_temperature;BME280_humidity;BME280_pressure;Samples;Min_cycle;Max_cycle;Signal;HPM_P1;HPM_P2
2021/09/22 00:01:35;;;;;;;66.77;46.07;;;;;;;;;;5009085;28;20215;-77
2021/09/22 00:04:02;;;;;;;61.80;44.70;;;;;;;;;;5008799;28;20226;-77
2021/09/22 00:06:28;;;;;;;63.50;46.00;;;;;;;;;;5007716;28;20204;-77
2021/09/22 00:08:56;;;;;;;60.10;43.13;;;;;;;;;;5009097;28;20219;-77
2021/09/22 00:11:22;;;;;;;60.70;44.97;;;;;;;;;;5007885;28;20239;-77
2021/09/22 00:13:49;;;;;;;62.87;45.40;;;;;;;;;;5008617;28;20208;-77
2021/09/22 00:16:15;;;;;;;65.83;46.77;;;;;;;;;;5007373;28;20567;-77
2021/09/22 00:18:42;;;;;;;61.17;44.80;;;;;;;;;;5009799;28;20212;-77
2021/09/22 00:21:08;;;;;;;66.40;46.13;;;;;;;;;;5010206;28;20220;-77
2021/09/22 00:23:35;;;;;;;70.80;47.03;;;;;;;;;;5009911;28;20658;-77
2021/09/22 00:26:03;;;;;;;64.80;46.83;;;;;;;;;;5010391;28;20231;-78
2021/09/22 00:28:29;;;;;;;64.97;46.67;;;;;;;;;;5009922;28;20216;-77
2021/09/22 00:30:55;;;;;;;61.37;43.67;;;;;;;;;;5009839;28;20246;-77
2021/09/22 00:33:22;;;;;;;70.00;47.83;;;;;;;;;;5010185;28;20703;-78
2021/09/22 00:35:49;;;;;;;72.10;47.10;;;;;;;;;;5010225;28;20250;-77
2021/09/22 00:38:15;;;;;;;66.40;45.37;;;;;;;;;;5007969;28;20212;-77
2021/09/22 00:40:42;;;;;;;66.47;46.60;;;;;;;;;;5010282;28;20208;-77
2021/09/22 00:43:10;;;;;;;70.37;48.43;;;;;;;;;;5008681;28;20216;-77
2021/09/22 00:45:36;;;;;;;64.37;45.43;;;;;;;;;;5008231;28;20215;-77
2021/09/22 00:48:03;;;;;;;71.63;46.00;;;;;;;;;;5008444;28;20204;-78
2021/09/22 00:50:30;;;;;;;76.60;49.43;;;;;;;;;;5008100;28;20294;-77
2021/09/22 00:52:56;;;;;;;72.70;48.17;;;;;;;;;;5007503;28;20231;-77
2021/09/22 00:55:23;;;;;;;76.97;50.57;;;;;;;;;;5009292;28;20270;-77
2021/09/22 00:57:50;;;;;;;73.20;47.87;;;;;;;;;;5008042;28;20260;-77
2021/09/22 01:00:21;;;;;;;75.37;48.87;;;;;;;;;;5006963;28;20286;-77
2021/09/22 01:02:48;;;;;;;74.50;47.80;;;;;;;;;;5008056;28;20212;-77
2021/09/22 01:05:16;;;;;;;75.07;50.40;;;;;;;;;;5006530;28;20215;-77
2021/09/22 01:07:43;;;;;;;89.00;53.27;;;;;;;;;;5008061;28;20270;-77
2021/09/22 01:10:10;;;;;;;74.30;48.13;;;;;;;;;;5006761;28;20223;-77
2021/09/22 01:12:36;;;;;;;81.30;51.53;;;;;;;;;;5006823;28;20236;-77
2021/09/22 01:15:03;;;;;;;82.17;49.73;;;;;;;;;;5007867;28;20258;-77
2021/09/22 01:17:32;;;;;;;77.83;48.73;;;;;;;;;;5011756;28;20263;-77
2021/09/22 01:20:00;;;;;;;80.03;50.47;;;;;;;;;;5011412;28;20298;-77
2021/09/22 01:22:28;;;;;;;78.67;49.60;;;;;;;;;;5011844;28;20215;-77
2021/09/22 01:24:55;;;;;;;83.83;51.13;;;;;;;;;;5011771;28;20782;-77
2021/09/22 01:27:21;;;;;;;73.47;48.63;;;;;;;;;;5010534;28;20714;-77
2021/09/22 01:29:48;;;;;;;75.10;48.23;;;;;;;;;;5011369;28;20597;-77
2021/09/22 01:32:14;;;;;;;82.63;49.07;;;;;;;;;;5010590;28;20636;-77
2021/09/22 01:34:41;;;;;;;77.73;49.13;;;;;;;;;;5010872;28;20222;-77
2021/09/22 01:37:08;;;;;;;85.50;51.10;;;;;;;;;;5010461;28;20248;-77
2021/09/22 01:39:40;;;;;;;86.70;50.17;;;;;;;;;;5011578;28;20216;-77
2021/09/22 01:42:07;;;;;;;75.17;47.40;;;;;;;;;;5009912;28;20665;-77
2021/09/22 01:44:34;;;;;;;87.30;52.30;;;;;;;;;;5011810;28;20223;-77
2021/09/22 01:47:01;;;;;;;82.57;49.23;;;;;;;;;;5010614;28;20284;-77
2021/09/22 01:49:27;;;;;;;82.47;50.57;;;;;;;;;;5011787;28;20670;-77
2021/09/22 01:51:58;;;;;;;76.97;50.33;;;;;;;;;;5010535;28;20231;-77
2021/09/22 01:54:24;;;;;;;68.57;47.47;;;;;;;;;;5011447;28;20216;-77
2021/09/22 01:56:53;;;;;;;88.03;49.60;;;;;;;;;;5010224;28;20254;-77
2021/09/22 01:59:20;;;;;;;84.83;49.47;;;;;;;;;;5010377;28;20710;-77
2021/09/22 02:01:46;;;;;;;80.90;50.33;;;;;;;;;;5010395;28;20662;-77
2021/09/22 02:04:13;;;;;;;84.57;50.10;;;;;;;;;;5010670;28;20203;-77
2021/09/22 02:06:39;;;;;;;88.43;51.70;;;;;;;;;;5011590;28;20262;-77
2021/09/22 02:09:06;;;;;;;85.07;49.80;;;;;;;;;;5010209;28;20231;-77
2021/09/22 02:11:32;;;;;;;99.67;51.87;;;;;;;;;;5010420;28;20306;-77
2021/09/22 02:14:00;;;;;;;93.07;52.80;;;;;;;;;;5009953;28;20710;-77
2021/09/22 02:16:27;;;;;;;81.87;49.63;;;;;;;;;;5009741;28;20237;-77
2021/09/22 02:18:53;;;;;;;88.50;52.17;;;;;;;;;;5010065;28;20227;-76
2021/09/22 02:21:20;;;;;;;82.37;49.47;;;;;;;;;;5009249;28;20215;-76
2021/09/22 02:23:46;;;;;;;85.93;51.30;;;;;;;;;;5010369;28;20273;-77
2021/09/22 02:26:13;;;;;;;103.37;54.50;;;;;;;;;;5009118;28;20231;-77
2021/09/22 02:28:40;;;;;;;85.47;50.57;;;;;;;;;;5009689;28;20216;-77
2021/09/22 02:31:08;;;;;;;90.57;52.17;;;;;;;;;;5009931;28;20575;-77
2021/09/22 02:33:34;;;;;;;92.30;52.80;;;;;;;;;;5009573;28;20219;-76
2021/09/22 02:36:01;;;;;;;96.10;53.80;;;;;;;;;;5009403;28;20660;-76
2021/09/22 02:38:27;;;;;;;97.33;53.90;;;;;;;;;;5008319;28;20274;-77
2021/09/22 02:40:53;;;;;;;105.23;57.27;;;;;;;;;;5008984;28;20211;-77
2021/09/22 02:43:20;;;;;;;91.23;53.20;;;;;;;;;;5009007;28;20212;-77
2021/09/22 02:45:46;;;;;;;104.60;55.90;;;;;;;;;;5008257;28;20689;-77
2021/09/22 02:48:14;;;;;;;104.37;56.37;;;;;;;;;;5008890;28;20248;-76
2021/09/22 02:50:40;;;;;;;107.97;57.33;;;;;;;;;;5009756;28;20219;-76
2021/09/22 02:53:07;;;;;;;105.93;56.67;;;;;;;;;;5008752;28;20781;-76
2021/09/22 02:55:33;;;;;;;107.10;56.33;;;;;;;;;;5009099;28;20215;-77
2021/09/22 02:58:00;;;;;;;112.00;58.60;;;;;;;;;;5009050;28;20286;-76
2021/09/22 03:00:26;;;;;;;108.23;56.40;;;;;;;;;;5009346;28;20223;-76
2021/09/22 03:02:53;;;;;;;108.23;56.63;;;;;;;;;;5008870;28;20218;-76
2021/09/22 03:05:20;;;;;;;105.93;55.37;;;;;;;;;;5008753;28;20271;-77
2021/09/22 03:07:47;;;;;;;112.40;60.20;;;;;;;;;;5009067;28;20298;-77
2021/09/22 03:10:14;;;;;;;113.70;57.97;;;;;;;;;;5008767;28;20216;-77
2021/09/22 03:12:40;;;;;;;121.27;58.67;;;;;;;;;;5008910;28;20243;-77
2021/09/22 03:15:07;;;;;;;100.80;55.60;;;;;;;;;;5008194;28;20216;-76
2021/09/22 03:17:34;;;;;;;101.57;54.97;;;;;;;;;;5008975;28;20208;-76
2021/09/22 03:20:00;;;;;;;115.10;57.30;;;;;;;;;;5008317;28;20219;-77
2021/09/22 03:22:28;;;;;;;120.17;58.63;;;;;;;;;;5008568;28;20212;-76
2021/09/22 03:24:54;;;;;;;122.33;58.37;;;;;;;;;;5008253;28;20211;-76
2021/09/22 03:27:21;;;;;;;113.90;57.90;;;;;;;;;;5008381;28;20224;-76
2021/09/22 03:29:48;;;;;;;98.37;53.80;;;;;;;;;;5009046;28;20243;-76
2021/09/22 03:32:14;;;;;;;98.90;54.63;;;;;;;;;;5008041;28;20689;-76
2021/09/22 03:34:40;;;;;;;114.60;58.57;;;;;;;;;;5008707;28;20273;-76
2021/09/22 03:37:07;;;;;;;107.40;56.23;;;;;;;;;;5006969;28;20243;-76
2021/09/22 03:39:35;;;;;;;97.77;54.73;;;;;;;;;;5006909;28;20270;-76
2021/09/22 03:42:01;;;;;;;125.63;61.10;;;;;;;;;;5007588;28;20611;-76
2021/09/22 03:44:27;;;;;;;114.03;57.50;;;;;;;;;;5008679;28;20277;-76
2021/09/22 03:46:54;;;;;;;106.23;56.87;;;;;;;;;;5008640;28;20221;-76
2021/09/22 03:49:21;;;;;;;124.07;60.23;;;;;;;;;;5008279;28;20738;-76
2021/09/22 03:51:48;;;;;;;92.00;54.07;;;;;;;;;;5007935;28;20242;-76
2021/09/22 03:54:14;;;;;;;121.93;60.30;;;;;;;;;;5007033;28;20212;-76
2021/09/22 03:56:42;;;;;;;121.40;58.97;;;;;;;;;;5007478;28;20804;-77
2021/09/22 03:59:09;;;;;;;127.77;60.40;;;;;;;;;;5007547;28;20222;-77
2021/09/22 04:01:35;;;;;;;129.00;62.23;;;;;;;;;;5007991;28;20204;-77
2021/09/22 04:04:02;;;;;;;129.93;64.60;;;;;;;;;;5007858;28;20222;-77
2021/09/22 04:06:28;;;;;;;144.77;67.27;;;;;;;;;;5007660;28;20668;-77
2021/09/22 04:08:55;;;;;;;135.93;64.10;;;;;;;;;;5008152;28;20263;-77
2021/09/22 04:11:21;;;;;;;138.17;65.57;;;;;;;;;;5007532;28;20236;-77
2021/09/22 04:13:49;;;;;;;147.27;67.20;;;;;;;;;;5008323;28;20223;-77
2021/09/22 04:16:16;;;;;;;147.40;68.93;;;;;;;;;;5007306;28;20250;-77
2021/09/22 04:18:42;;;;;;;154.53;70.80;;;;;;;;;;5007964;28;20216;-77
2021/09/22 04:21:09;;;;;;;150.93;70.83;;;;;;;;;;5007698;28;20673;-77
2021/09/22 04:23:35;;;;;;;148.13;69.10;;;;;;;;;;5008117;28;20208;-77
2021/09/22 04:26:01;;;;;;;149.40;70.87;;;;;;;;;;5007417;28;20242;-77
2021/09/22 04:28:28;;;;;;;157.47;73.47;;;;;;;;;;5008073;28;20675;-77
2021/09/22 04:30:56;;;;;;;138.60;70.97;;;;;;;;;;5007599;28;20208;-75
2021/09/22 04:33:22;;;;;;;152.07;75.43;;;;;;;;;;5008836;28;20239;-75
2021/09/22 04:35:49;;;;;;;168.87;77.33;;;;;;;;;;5007597;28;20305;-75
2021/09/22 04:38:15;;;;;;;149.23;73.33;;;;;;;;;;5007096;28;20256;-75
2021/09/22 04:40:42;;;;;;;173.40;81.17;;;;;;;;;;5007130;28;20246;-75
2021/09/22 04:43:08;;;;;;;153.40;72.77;;;;;;;;;;5006999;28;20239;-75
2021/09/22 04:45:34;;;;;;;178.10;81.13;;;;;;;;;;5007490;28;20740;-75
2021/09/22 04:48:02;;;;;;;155.70;76.00;;;;;;;;;;5007241;28;20219;-75
2021/09/22 04:50:29;;;;;;;148.57;74.43;;;;;;;;;;5007761;28;20273;-75
2021/09/22 04:52:56;;;;;;;145.30;75.00;;;;;;;;;;5011032;28;20939;-76
2021/09/22 04:55:22;;;;;;;135.90;72.07;;;;;;;;;;5011263;28;21008;-75
2021/09/22 04:57:49;;;;;;;164.97;80.70;;;;;;;;;;5010724;28;20262;-75
2021/09/22 05:00:16;;;;;;;146.83;73.87;;;;;;;;;;5011125;28;20223;-75
2021/09/22 05:02:42;;;;;;;172.57;83.20;;;;;;;;;;5011549;28;20220;-75
2021/09/22 05:05:10;;;;;;;149.17;77.63;;;;;;;;;;5010752;28;20788;-75
2021/09/22 05:07:37;;;;;;;154.67;79.57;;;;;;;;;;5011243;28;20221;-75
2021/09/22 05:10:04;;;;;;;146.83;77.20;;;;;;;;;;5010766;28;20230;-75
2021/09/22 05:12:30;;;;;;;172.13;85.67;;;;;;;;;;5010517;28;20250;-75
2021/09/22 05:14:57;;;;;;;156.63;82.00;;;;;;;;;;5010091;28;20317;-75
2021/09/22 05:17:24;;;;;;;168.70;86.43;;;;;;;;;;5010225;28;20218;-75
2021/09/22 05:19:51;;;;;;;212.47;86.50;;;;;;;;;;5010521;28;20603;-75
2021/09/22 05:22:19;;;;;;;146.17;81.17;;;;;;;;;;5009413;28;20710;-75
2021/09/22 05:24:45;;;;;;;161.53;82.47;;;;;;;;;;5009081;28;20210;-75
2021/09/22 05:27:12;;;;;;;168.63;83.93;;;;;;;;;;5009739;28;20235;-75
2021/09/22 05:29:39;;;;;;;145.77;80.20;;;;;;;;;;5010193;28;20215;-75
2021/09/22 05:32:06;;;;;;;159.83;85.17;;;;;;;;;;5010326;28;20234;-75
2021/09/22 05:34:32;;;;;;;145.10;78.63;;;;;;;;;;5011098;28;20223;-75
2021/09/22 05:36:59;;;;;;;174.60;88.60;;;;;;;;;;5009848;28;20275;-75
2021/09/22 05:39:27;;;;;;;156.03;83.57;;;;;;;;;;5008644;28;20215;-75
2021/09/22 05:41:53;;;;;;;165.63;84.90;;;;;;;;;;5008688;28;20581;-75
2021/09/22 05:44:19;;;;;;;151.57;80.60;;;;;;;;;;5009053;28;20215;-75
2021/09/22 05:46:46;;;;;;;136.23;78.17;;;;;;;;;;5009132;28;20223;-75
2021/09/22 05:49:12;;;;;;;133.03;78.77;;;;;;;;;;5008188;28;20221;-75
2021/09/22 05:51:39;;;;;;;152.77;79.80;;;;;;;;;;5008308;28;20692;-75
2021/09/22 05:54:05;;;;;;;135.33;77.60;;;;;;;;;;5008742;28;20216;-75
2021/09/22 05:56:33;;;;;;;120.37;72.17;;;;;;;;;;5008955;28;20239;-75
2021/09/22 05:58:59;;;;;;;109.63;72.27;;;;;;;;;;5009092;28;20218;-75
2021/09/22 06:01:26;;;;;;;138.80;77.93;;;;;;;;;;5008429;28;20946;-75
2021/09/22 06:03:52;;;;;;;129.93;77.53;;;;;;;;;;5009302;28;20219;-75
2021/09/22 06:06:18;;;;;;;124.97;73.80;;;;;;;;;;5008628;28;20219;-75
2021/09/22 06:08:45;;;;;;;118.10;74.17;;;;;;;;;;5007768;28;20277;-75
2021/09/22 06:11:11;;;;;;;123.57;74.23;;;;;;;;;;5007691;28;20289;-75
2021/09/22 06:13:39;;;;;;;130.40;79.23;;;;;;;;;;5008289;28;20249;-75
2021/09/22 06:16:06;;;;;;;104.00;70.97;;;;;;;;;;5007835;28;20262;-74
2021/09/22 06:18:35;;;;;;;114.67;75.80;;;;;;;;;;5008548;28;20212;-76
2021/09/22 06:21:04;;;;;;;100.90;70.03;;;;;;;;;;5007700;28;20230;-75
2021/09/22 06:23:30;;;;;;;107.43;73.87;;;;;;;;;;5007880;28;20247;-76
2021/09/22 06:25:57;;;;;;;100.07;69.60;;;;;;;;;;5007182;28;20242;-75
2021/09/22 06:28:23;;;;;;;104.80;70.00;;;;;;;;;;5006648;28;20227;-75
2021/09/22 06:30:51;;;;;;;106.70;71.33;;;;;;;;;;5008018;28;20219;-75
2021/09/22 06:33:17;;;;;;;108.37;71.20;;;;;;;;;;5006309;28;20263;-76
2021/09/22 06:35:44;;;;;;;107.27;72.73;;;;;;;;;;5006730;28;20289;-75
2021/09/22 06:38:10;;;;;;;91.80;67.17;;;;;;;;;;5006706;28;20211;-75
2021/09/22 06:40:38;;;;;;;108.30;70.87;;;;;;;;;;5006546;28;20223;-75
2021/09/22 06:43:05;;;;;;;106.63;73.27;;;;;;;;;;5004905;28;20546;-75
2021/09/22 06:45:33;;;;;;;93.27;66.30;;;;;;;;;;5008385;28;20219;-75
2021/09/22 06:48:01;;;;;;;94.53;66.97;;;;;;;;;;5007340;28;20224;-75
2021/09/22 06:50:28;;;;;;;91.97;67.33;;;;;;;;;;5006216;28;20247;-75
2021/09/22 06:52:55;;;;;;;94.20;69.23;;;;;;;;;;5006055;28;20243;-75
2021/09/22 06:55:21;;;;;;;88.70;67.87;;;;;;;;;;4999255;28;20816;-75
2021/09/22 06:57:48;;;;;;;82.37;62.23;;;;;;;;;;5005651;28;20278;-75
2021/09/22 07:00:15;;;;;;;89.30;65.47;;;;;;;;;;5006050;28;20281;-75
2021/09/22 07:02:41;;;;;;;82.23;62.00;;;;;;;;;;5006368;28;20214;-75
2021/09/22 07:05:11;;;;;;;73.93;56.73;;;;;;;;;;5006557;28;20223;-75
2021/09/22 07:07:37;;;;;;;77.83;58.43;;;;;;;;;;5006574;28;20212;-75
2021/09/22 07:10:05;;;;;;;74.20;56.13;;;;;;;;;;5006695;28;20227;-75
2021/09/22 07:12:32;;;;;;;66.80;57.57;;;;;;;;;;5006367;28;20247;-75
2021/09/22 07:14:58;;;;;;;93.93;53.83;;;;;;;;;;5005683;28;20572;-75
2021/09/22 07:17:25;;;;;;;63.00;51.07;;;;;;;;;;5006120;28;20273;-75
2021/09/22 07:19:51;;;;;;;57.83;50.37;;;;;;;;;;5006288;28;20271;-75
2021/09/22 07:22:19;;;;;;;60.30;49.37;;;;;;;;;;5005617;28;20289;-75
2021/09/22 07:24:46;;;;;;;62.57;51.50;;;;;;;;;;5006637;28;20230;-75
2021/09/22 07:27:12;;;;;;;59.87;49.20;;;;;;;;;;5005597;28;20239;-74
2021/09/22 07:29:38;;;;;;;63.00;49.93;;;;;;;;;;5006368;28;20274;-74
2021/09/22 07:32:07;;;;;;;54.47;46.00;;;;;;;;;;5005112;28;20817;-75
2021/09/22 07:34:34;;;;;;;52.53;46.83;;;;;;;;;;5005758;28;20878;-74
2021/09/22 07:37:01;;;;;;;51.47;44.73;;;;;;;;;;5005787;28;20262;-74
2021/09/22 07:39:29;;;;;;;66.73;47.30;;;;;;;;;;5005104;28;20226;-74
2021/09/22 07:41:55;;;;;;;55.83;47.27;;;;;;;;;;5005955;28;20708;-74
2021/09/22 07:44:21;;;;;;;50.70;45.00;;;;;;;;;;5004924;28;20278;-74
2021/09/22 07:46:48;;;;;;;52.90;46.13;;;;;;;;;;5006268;28;20212;-74
2021/09/22 07:49:14;;;;;;;50.60;43.13;;;;;;;;;;5005152;28;20220;-74
2021/09/22 07:51:41;;;;;;;47.97;40.43;;;;;;;;;;5006315;28;20219;-74
2021/09/22 07:54:07;;;;;;;45.10;40.23;;;;;;;;;;5003878;28;20255;-74
2021/09/22 07:56:35;;;;;;;46.23;39.00;;;;;;;;;;5006097;28;20231;-74
2021/09/22 07:59:02;;;;;;;43.67;38.97;;;;;;;;;;5004669;28;20224;-74
2021/09/22 08:01:28;;;;;;;45.70;39.20;;;;;;;;;;5004458;28;20288;-74
2021/09/22 08:03:54;;;;;;;44.20;39.47;;;;;;;;;;5003717;28;20220;-74
2021/09/22 08:06:21;;;;;;;46.53;41.03;;;;;;;;;;5004293;28;20212;-74
2021/09/22 08:08:47;;;;;;;57.47;40.50;;;;;;;;;;5005539;28;20285;-74
2021/09/22 08:11:14;;;;;;;46.13;39.40;;;;;;;;;;5005321;28;20432;-74
2021/09/22 08:13:41;;;;;;;41.07;36.20;;;;;;;;;;5005613;28;20293;-74
2021/09/22 08:16:10;;;;;;;41.33;36.27;;;;;;;;;;5004526;28;20220;-74
2021/09/22 08:18:36;;;;;;;45.13;40.33;;;;;;;;;;5005757;28;20213;-75
2021/09/22 08:21:02;;;;;;;43.53;37.60;;;;;;;;;;5005675;28;20211;-74
2021/09/22 08:23:29;;;;;;;42.20;36.03;;;;;;;;;;5004311;28;20776;-74
2021/09/22 08:25:56;;;;;;;40.93;36.70;;;;;;;;;;5003730;28;20222;-74
2021/09/22 08:28:22;;;;;;;42.47;37.30;;;;;;;;;;5004803;28;20216;-74
2021/09/22 08:30:50;;;;;;;39.93;35.67;;;;;;;;;;5005283;28;20562;-74
2021/09/22 08:33:16;;;;;;;36.67;32.77;;;;;;;;;;5004407;28;20722;-74
2021/09/22 08:35:43;;;;;;;38.87;33.47;;;;;;;;;;5004620;28;20276;-74
2021/09/22 08:38:09;;;;;;;36.30;32.43;;;;;;;;;;5003926;28;20969;-74
2021/09/22 08:40:36;;;;;;;37.57;33.43;;;;;;;;;;5004393;28;20268;-74
2021/09/22 08:43:03;;;;;;;39.00;33.83;;;;;;;;;;5004471;28;20316;-74
2021/09/22 08:45:33;;;;;;;36.43;32.57;;;;;;;;;;5004934;28;20292;-74
2021/09/22 08:48:01;;;;;;;35.87;31.87;;;;;;;;;;5004709;28;20249;-74
2021/09/22 08:50:27;;;;;;;35.90;32.17;;;;;;;;;;5004031;28;20210;-74
2021/09/22 08:52:54;;;;;;;35.73;31.93;;;;;;;;;;5004929;28;20305;-74
2021/09/22 08:55:20;;;;;;;34.27;30.63;;;;;;;;;;5003865;28;20262;-74
2021/09/22 08:57:47;;;;;;;42.10;33.07;;;;;;;;;;5003388;28;20231;-74
2021/09/22 09:00:16;;;;;;;40.43;31.80;;;;;;;;;;5004183;28;20249;-74
2021/09/22 09:02:45;;;;;;;37.53;32.40;;;;;;;;;;5004375;28;20219;-74
2021/09/22 09:05:16;;;;;;;34.60;30.67;;;;;;;;;;5003982;28;20223;-74
2021/09/22 09:07:48;;;;;;;31.37;27.97;;;;;;;;;;5005056;28;20204;-74
2021/09/22 09:10:15;;;;;;;32.50;29.27;;;;;;;;;;5004367;28;20599;-74
2021/09/22 09:12:41;;;;;;;42.90;30.80;;;;;;;;;;5005511;28;20311;-74
2021/09/22 09:15:10;;;;;;;37.43;28.93;;;;;;;;;;5004286;28;20620;-74
2021/09/22 09:17:41;;;;;;;32.07;28.73;;;;;;;;;;5005041;28;20218;-74
2021/09/22 09:20:15;;;;;;;32.20;28.90;;;;;;;;;;5003652;28;20642;-74
2021/09/22 09:22:43;;;;;;;31.97;28.10;;;;;;;;;;5005128;28;20209;-74
2021/09/22 09:25:10;;;;;;;103.20;33.30;;;;;;;;;;5003558;28;20248;-74
2021/09/22 09:27:37;;;;;;;37.60;28.73;;;;;;;;;;5004287;28;20599;-74
2021/09/22 09:30:18;;;;;;;31.00;27.67;;;;;;;;;;5004243;28;20579;-74
2021/09/22 09:32:45;;;;;;;47.43;28.00;;;;;;;;;;5004643;28;20226;-73
2021/09/22 09:35:15;;;;;;;29.23;26.20;;;;;;;;;;5003884;28;20212;-74
2021/09/22 09:37:44;;;;;;;38.93;27.13;;;;;;;;;;5007139;28;20266;-73
2021/09/22 09:40:22;;;;;;;31.57;28.27;;;;;;;;;;5007434;28;20219;-74
2021/09/22 09:42:52;;;;;;;40.07;27.23;;;;;;;;;;5007705;28;20292;-74
2021/09/22 09:45:20;;;;;;;38.90;26.73;;;;;;;;;;5007551;28;20217;-74
2021/09/22 09:48:07;;;;;;;33.23;26.97;;;;;;;;;;5008509;28;20293;-73
2021/09/22 09:50:41;;;;;;;32.17;26.43;;;;;;;;;;5008138;28;20208;-74
2021/09/22 09:53:08;;;;;;;30.57;27.17;;;;;;;;;;5007646;28;20278;-74
2021/09/22 09:55:38;;;;;;;31.17;28.07;;;;;;;;;;5008280;28;20287;-74
2021/09/22 09:58:04;;;;;;;30.70;27.13;;;;;;;;;;5008213;28;20255;-74
2021/09/22 10:00:45;;;;;;;29.10;26.00;;;;;;;;;;5007508;28;20270;-74
2021/09/22 10:03:14;;;;;;;30.47;27.27;;;;;;;;;;5008347;28;20212;-74
2021/09/22 10:05:42;;;;;;;29.87;26.87;;;;;;;;;;5007973;28;20215;-74
2021/09/22 10:08:11;;;;;;;28.57;25.70;;;;;;;;;;5006742;28;20235;-74
2021/09/22 10:10:37;;;;;;;29.87;26.80;;;;;;;;;;5007481;28;20224;-74
2021/09/22 10:13:05;;;;;;;31.80;27.97;;;;;;;;;;5007335;28;20231;-74
2021/09/22 10:15:33;;;;;;;42.30;26.97;;;;;;;;;;5008154;28;20212;-74
2021/09/22 10:18:00;;;;;;;31.13;25.10;;;;;;;;;;5008293;28;20216;-74
2021/09/22 10:20:27;;;;;;;25.37;22.70;;;;;;;;;;5007124;28;20211;-75
2021/09/22 10:22:55;;;;;;;23.57;21.23;;;;;;;;;;5007683;28;20215;-74
2021/09/22 10:25:23;;;;;;;25.43;22.33;;;;;;;;;;5007551;28;20216;-74
2021/09/22 10:27:50;;;;;;;25.47;19.37;;;;;;;;;;5007363;28;20285;-74
2021/09/22 10:30:17;;;;;;;23.63;18.90;;;;;;;;;;5006814;28;20226;-74
2021/09/22 10:32:45;;;;;;;18.97;16.83;;;;;;;;;;5007085;28;20223;-74
2021/09/22 10:35:36;;;;;;;23.13;17.80;;;;;;;;;;5006526;28;20254;-74
2021/09/22 10:38:41;;;;;;;24.90;16.80;;;;;;;;;;5007300;28;20299;-74
2021/09/22 10:41:08;;;;;;;19.50;17.03;;;;;;;;;;5005571;28;20291;-75
2021/09/22 10:43:39;;;;;;;15.80;12.80;;;;;;;;;;5006660;28;20312;-76
2021/09/22 10:46:15;;;;;;;15.60;12.53;;;;;;;;;;5007542;28;20736;-75
2021/09/22 10:48:43;;;;;;;15.43;13.70;;;;;;;;;;5005644;28;20223;-73
2021/09/22 10:51:11;;;;;;;17.37;14.87;;;;;;;;;;5006491;28;21259;-74
2021/09/22 10:53:41;;;;;;;16.10;11.57;;;;;;;;;;5006685;28;20302;-75
2021/09/22 10:56:10;;;;;;;17.40;13.10;;;;;;;;;;5006621;28;20628;-75
2021/09/22 10:58:42;;;;;;;17.70;14.13;;;;;;;;;;5010291;28;20218;-74
2021/09/22 11:01:09;;;;;;;16.57;14.67;;;;;;;;;;5007317;28;20211;-77
2021/09/22 11:03:55;;;;;;;17.23;14.93;;;;;;;;;;5007525;28;21066;-74
2021/09/22 11:06:55;;;;;;;15.97;14.27;;;;;;;;;;5006073;28;20221;-74
2021/09/22 11:09:33;;;;;;;17.23;11.13;;;;;;;;;;4975068;28;20221;-75
2021/09/22 11:12:10;;;;;;;16.57;10.33;;;;;;;;;;5006319;28;20287;-74
2021/09/22 11:14:38;;;;;;;11.37;8.57;;;;;;;;;;5006464;28;20311;-74
2021/09/22 11:17:07;;;;;;;13.43;10.33;;;;;;;;;;5006369;28;20658;-74
2021/09/22 11:19:35;;;;;;;12.13;10.07;;;;;;;;;;5006510;28;20216;-74
2021/09/22 11:22:02;;;;;;;15.83;9.37;;;;;;;;;;5005275;28;21147;-73
2021/09/22 11:24:32;;;;;;;11.93;8.87;;;;;;;;;;5005077;28;20236;-73
2021/09/22 11:27:02;;;;;;;13.47;8.93;;;;;;;;;;5005957;28;20581;-73
2021/09/22 11:29:31;;;;;;;29.57;10.77;;;;;;;;;;5005169;28;20633;-74
2021/09/22 11:31:58;;;;;;;15.70;7.97;;;;;;;;;;5005128;28;20220;-73
2021/09/22 11:34:25;;;;;;;13.10;7.07;;;;;;;;;;5005212;28;20233;-73
2021/09/22 11:37:04;;;;;;;14.00;9.10;;;;;;;;;;5005557;28;20824;-73
2021/09/22 11:39:32;;;;;;;11.23;8.03;;;;;;;;;;5005781;28;20208;-73
2021/09/22 11:41:59;;;;;;;15.70;9.70;;;;;;;;;;5005101;28;20237;-73
2021/09/22 11:44:26;;;;;;;15.97;9.90;;;;;;;;;;5005470;28;20225;-73
2021/09/22 11:46:54;;;;;;;14.33;9.47;;;;;;;;;;5005074;28;20201;-74
2021/09/22 11:49:20;;;;;;;11.10;9.03;;;;;;;;;;5005326;28;20270;-74
2021/09/22 11:52:04;;;;;;;14.40;11.20;;;;;;;;;;5005931;28;20223;-74
2021/09/22 11:54:34;;;;;;;18.70;11.03;;;;;;;;;;5004964;28;20290;-74
2021/09/22 11:57:05;;;;;;;15.50;12.10;;;;;;;;;;5005198;28;20846;-73
2021/09/22 11:59:33;;;;;;;16.57;10.93;;;;;;;;;;5006166;28;20243;-73
2021/09/22 12:02:01;;;;;;;16.80;11.73;;;;;;;;;;5005682;28;20839;-73
2021/09/22 12:04:31;;;;;;;18.10;12.53;;;;;;;;;;5005255;28;20239;-74
2021/09/22 12:06:58;;;;;;;14.67;9.60;;;;;;;;;;5004981;28;20247;-74
2021/09/22 12:09:25;;;;;;;15.93;10.93;;;;;;;;;;5004709;28;20221;-74
2021/09/22 12:12:07;;;;;;;22.57;10.90;;;;;;;;;;5005524;28;20800;-74
2021/09/22 12:14:33;;;;;;;77.20;17.20;;;;;;;;;;5005776;28;20674;-74
2021/09/22 12:17:07;;;;;;;16.27;12.43;;;;;;;;;;5005414;28;20668;-73
2021/09/22 12:19:34;;;;;;;13.73;11.77;;;;;;;;;;5005137;28;20713;-73
2021/09/22 12:22:01;;;;;;;12.40;10.90;;;;;;;;;;5004931;28;20217;-73
2021/09/22 12:24:29;;;;;;;22.33;12.80;;;;;;;;;;5004925;28;20252;-73
2021/09/22 12:26:55;;;;;;;15.20;13.57;;;;;;;;;;5003484;28;20229;-73
2021/09/22 12:29:23;;;;;;;14.57;12.90;;;;;;;;;;5004354;28;20609;-73
2021/09/22 12:31:52;;;;;;;19.20;14.00;;;;;;;;;;5005414;28;20240;-73
2021/09/22 12:34:22;;;;;;;16.23;13.13;;;;;;;;;;5005222;28;20229;-73
2021/09/22 12:36:49;;;;;;;14.53;12.43;;;;;;;;;;5004801;28;20247;-74
2021/09/22 12:39:17;;;;;;;18.10;14.13;;;;;;;;;;5004305;28;20543;-73
2021/09/22 12:41:58;;;;;;;14.80;12.80;;;;;;;;;;5005503;28;20309;-73
2021/09/22 12:44:25;;;;;;;14.60;12.57;;;;;;;;;;5004865;28;20308;-73
2021/09/22 12:46:52;;;;;;;12.57;10.73;;;;;;;;;;5005164;28;20217;-74
2021/09/22 12:49:21;;;;;;;15.40;10.30;;;;;;;;;;5005124;28;20234;-73
2021/09/22 12:51:49;;;;;;;15.83;10.73;;;;;;;;;;5004558;28;20221;-75
2021/09/22 12:54:16;;;;;;;11.73;9.30;;;;;;;;;;5004278;28;20238;-73
2021/09/22 12:56:43;;;;;;;17.20;11.07;;;;;;;;;;5004840;28;20331;-76
2021/09/22 12:59:19;;;;;;;12.80;10.57;;;;;;;;;;5004434;28;20291;-75
2021/09/22 13:01:52;;;;;;;17.47;9.50;;;;;;;;;;5004822;28;20247;-74
2021/09/22 13:04:25;;;;;;;12.77;8.10;;;;;;;;;;5004453;28;20209;-76
2021/09/22 13:06:52;;;;;;;21.90;9.67;;;;;;;;;;5004606;28;20243;-73
2021/09/22 13:09:30;;;;;;;12.87;9.87;;;;;;;;;;5004948;28;20215;-73
2021/09/22 13:11:56;;;;;;;11.70;8.10;;;;;;;;;;5005081;28;20224;-73
2021/09/22 13:14:23;;;;;;;19.97;9.67;;;;;;;;;;5008928;28;20295;-73
2021/09/22 13:16:52;;;;;;;15.47;9.33;;;;;;;;;;5009058;28;20235;-74
2021/09/22 13:19:20;;;;;;;10.37;9.37;;;;;;;;;;5007842;28;20644;-73
2021/09/22 13:21:49;;;;;;;12.40;9.50;;;;;;;;;;5009271;28;20852;-73
2021/09/22 13:24:17;;;;;;;22.53;10.43;;;;;;;;;;5007988;28;20217;-74
2021/09/22 13:26:46;;;;;;;13.50;10.20;;;;;;;;;;5008432;28;20303;-74
2021/09/22 13:29:14;;;;;;;28.30;11.97;;;;;;;;;;5007797;28;20746;-74
2021/09/22 13:31:42;;;;;;;14.40;10.83;;;;;;;;;;5009129;28;20269;-74
2021/09/22 13:34:11;;;;;;;13.40;10.60;;;;;;;;;;5007478;28;20212;-73
2021/09/22 13:36:38;;;;;;;18.43;11.80;;;;;;;;;;5008529;28;20272;-74
2021/09/22 13:39:06;;;;;;;13.73;11.07;;;;;;;;;;5008596;28;20305;-73
2021/09/22 13:41:33;;;;;;;15.70;10.83;;;;;;;;;;5009072;28;20243;-73
2021/09/22 13:44:04;;;;;;;14.20;10.17;;;;;;;;;;5007929;28;20214;-74
2021/09/22 13:46:31;;;;;;;13.60;10.60;;;;;;;;;;5007743;28;20593;-73
2021/09/22 13:48:58;;;;;;;14.53;10.93;;;;;;;;;;5008376;28;20614;-73
2021/09/22 13:51:26;;;;;;;14.10;11.27;;;;;;;;;;5008266;28;20215;-73
2021/09/22 13:53:52;;;;;;;11.67;8.33;;;;;;;;;;5008544;28;20220;-73
2021/09/22 13:56:20;;;;;;;12.90;8.37;;;;;;;;;;5007116;28;20297;-73
2021/09/22 13:58:46;;;;;;;11.13;9.13;;;;;;;;;;5007951;28;20212;-74
2021/09/22 14:01:13;;;;;;;11.33;8.97;;;;;;;;;;5007382;28;20293;-74
2021/09/22 14:03:40;;;;;;;11.80;9.67;;;;;;;;;;5008643;28;20214;-74
2021/09/22 14:06:06;;;;;;;15.03;11.10;;;;;;;;;;5007759;28;20214;-73
2021/09/22 14:08:36;;;;;;;12.90;10.50;;;;;;;;;;5007927;28;20296;-74
2021/09/22 14:11:04;;;;;;;21.07;10.43;;;;;;;;;;5008466;28;20233;-74
2021/09/22 14:13:31;;;;;;;9.33;8.37;;;;;;;;;;5007941;28;20294;-74
2021/09/22 14:15:58;;;;;;;13.57;8.37;;;;;;;;;;5008003;28;20231;-76
2021/09/22 14:18:25;;;;;;;10.90;7.53;;;;;;;;;;5007219;28;20547;-74